DAUB

Biskra Airport

Biskra, Algeria
TAF DAUB 160500Z 1606/1706 36008KT CAVOK
Issued Valid From Valid To
Feb-16 @ 05:00 UTC
(6 hours ago)
Feb-16 @ 06:00 UTC
(5 hours ago)
Feb-17 @ 06:00 UTC
(in 19 hours)
Feb-16 @ 06:00 to Feb-17 @ 06:00
TAF DAUB 160500Z 1606/1706 36008KT CAVOK
Wind Visibility Clouds Conditions
360° at 8 knots 10,000+ meters
  • No significant clouds
TAF DAUB 160500Z 1606/1706 36008KT CAVOK
Issued Feb-16 @ 05:00 UTC
(6 hours ago)
Valid From Feb-16 @ 06:00 UTC
(5 hours ago)
Valid To Feb-17 @ 06:00 UTC
(in 19 hours)
Feb-16 @ 06:00 - Feb-17 @ 06:00
Wind Visibility
360° at 8 knots 10,000+ meters
Clouds
  • No significant clouds
Conditions